Time;durP1;ratioP1;P1;durP2;ratioP2;P2;SDS_P1;SDS_P2;PMS_P1;PMS_P2;Temp;Humidity;BMP_temperature;BMP_pressure;BME280_temperature;BME280_humidity;BME280_pressure;Samples;Min_cycle;Max_cycle;Signal;HPM_P1;HPM_P2
2022/06/06 00:01:56;;;;;;;3.80;3.50;;;;;;;18.95;75.20;100435.28;4992177;28;20763;-82
2022/06/06 00:04:24;;;;;;;4.00;3.70;;;;;;;18.92;75.17;100416.69;4993495;28;20212;-82
2022/06/06 00:06:52;;;;;;;3.87;3.57;;;;;;;18.91;75.07;100426.63;4991853;28;20764;-83
2022/06/06 00:09:19;;;;;;;4.20;3.90;;;;;;;18.87;74.98;100425.25;4991699;28;20211;-82
2022/06/06 00:11:50;;;;;;;4.30;3.43;;;;;;;18.87;74.74;100432.50;4992481;28;20347;-82
2022/06/06 00:14:18;;;;;;;3.67;3.37;;;;;;;18.84;74.75;100432.78;4986801;28;20214;-82
2022/06/06 00:16:45;;;;;;;3.63;3.30;;;;;;;18.78;74.45;100434.28;4989379;28;20221;-82
2022/06/06 00:19:13;;;;;;;5.87;3.77;;;;;;;18.79;74.13;100432.44;4991471;28;20220;-82
2022/06/06 00:21:41;;;;;;;3.83;3.53;;;;;;;18.76;74.16;100427.34;4990867;28;20206;-83
2022/06/06 00:24:08;;;;;;;4.00;3.70;;;;;;;18.73;74.27;100431.19;4991711;28;20649;-83
2022/06/06 00:26:35;;;;;;;3.97;3.57;;;;;;;18.72;74.08;100437.59;4991740;28;20221;-82
2022/06/06 00:29:04;;;;;;;4.27;3.87;;;;;;;18.71;74.18;100442.16;4991394;28;20208;-82
2022/06/06 00:37:02;;;;;;;3.50;3.27;;;;;;;18.67;73.92;100445.28;4988996;28;20351;-82
2022/06/06 00:39:28;;;;;;;4.97;3.80;;;;;;;18.66;74.06;100447.13;4991702;28;20727;-82
2022/06/06 00:41:57;;;;;;;3.60;3.30;;;;;;;18.61;73.95;100443.22;4994380;28;20207;-82
2022/06/06 00:44:30;;;;;;;3.60;3.30;;;;;;;18.59;73.92;100454.16;4991778;28;20202;-82
2022/06/06 00:47:01;;;;;;;3.87;3.57;;;;;;;18.55;73.70;100441.97;4991489;28;20704;-82
2022/06/06 00:49:34;;;;;;;3.43;3.13;;;;;;;18.52;73.53;100442.25;4990793;28;20226;-82
2022/06/06 00:52:02;;;;;;;3.77;3.40;;;;;;;18.48;73.28;100442.72;4986395;28;20207;-82
2022/06/06 00:54:30;;;;;;;3.50;3.20;;;;;;;18.48;73.08;100442.72;4991462;28;20213;-82
2022/06/06 00:57:02;;;;;;;3.70;3.33;;;;;;;18.44;73.12;100438.66;4988774;28;20225;-83
2022/06/06 00:59:35;;;;;;;3.70;3.40;;;;;;;18.42;73.29;100444.19;4991431;28;20204;-82
2022/06/06 01:02:02;;;;;;;3.70;3.47;;;;;;;18.41;73.36;100438.94;4991170;28;20197;-83
2022/06/06 01:04:31;;;;;;;3.90;3.60;;;;;;;18.40;73.27;100446.19;4991215;28;20618;-83
2022/06/06 01:06:57;;;;;;;3.40;3.10;;;;;;;18.39;73.35;100441.78;4993221;28;20687;-82
2022/06/06 01:09:26;;;;;;;3.23;3.03;;;;;;;18.37;73.33;100431.16;4990383;28;20208;-82
2022/06/06 01:11:59;;;;;;;4.30;3.53;;;;;;;18.35;72.68;100435.84;4988425;28;20202;-84
2022/06/06 01:14:30;;;;;;;3.67;3.37;;;;;;;18.34;72.58;100439.53;4990990;28;20205;-82
2022/06/06 01:17:03;;;;;;;3.70;3.33;;;;;;;18.32;72.59;100438.00;4985578;28;20227;-82
2022/06/06 01:19:51;;;;;;;3.73;3.43;;;;;;;18.31;72.30;100441.69;4991239;28;20213;-84
2022/06/06 01:23:09;;;;;;;3.60;3.30;;;;;;;18.29;72.17;100454.47;4978662;28;20219;-83
2022/06/06 01:26:16;;;;;;;3.57;3.27;;;;;;;18.28;72.18;100447.38;4986098;28;20680;-83
2022/06/06 01:28:52;;;;;;;4.20;3.90;;;;;;;18.25;71.99;100448.56;4985716;28;20219;-82
2022/06/06 01:31:25;;;;;;;3.90;3.60;;;;;;;18.25;71.97;100450.41;4981456;28;20212;-82
2022/06/06 01:33:55;;;;;;;4.10;3.80;;;;;;;18.22;72.04;100445.31;4986564;28;20206;-84
2022/06/06 01:36:22;;;;;;;4.83;3.93;;;;;;;18.19;71.88;100442.91;4989395;28;20227;-83
2022/06/06 01:38:52;;;;;;;4.10;3.70;;;;;;;18.19;72.11;100448.31;4985208;28;20223;-82
2022/06/06 01:41:26;;;;;;;5.50;4.23;;;;;;;18.19;71.93;100453.69;4989123;28;20205;-82
2022/06/06 01:44:01;;;;;;;4.40;4.10;;;;;;;18.19;71.93;100446.44;4988144;28;20200;-81
2022/06/06 01:46:31;;;;;;;4.00;3.70;;;;;;;18.19;72.12;100448.31;4985283;28;20230;-83
2022/06/06 01:48:58;;;;;;;4.73;4.33;;;;;;;18.18;72.16;100450.16;4989670;28;20224;-83
2022/06/06 01:51:28;;;;;;;4.40;4.00;;;;;;;18.19;71.99;100451.84;4990409;28;20211;-83
2022/06/06 01:53:55;;;;;;;5.07;4.63;;;;;;;18.19;72.09;100453.69;4989464;28;20216;-83
2022/06/06 01:56:26;;;;;;;5.87;5.00;;;;;;;18.18;72.15;100457.38;4988729;28;20694;-83
2022/06/06 01:58:53;;;;;;;5.73;5.10;;;;;;;18.17;71.99;100458.38;4989551;28;20256;-81
2022/06/06 02:01:21;;;;;;;6.40;5.87;;;;;;;18.16;72.06;100456.69;4985490;28;20210;-83
2022/06/06 02:03:48;;;;;;;6.73;6.13;;;;;;;18.13;72.18;100448.88;4990093;28;20640;-83
2022/06/06 02:06:14;;;;;;;7.00;6.40;;;;;;;18.13;71.94;100447.03;4985988;28;20589;-82
2022/06/06 02:08:42;;;;;;;6.30;5.80;;;;;;;18.11;72.23;100450.88;4985003;28;20224;-83
2022/06/06 02:11:09;;;;;;;7.53;6.67;;;;;;;18.10;72.39;100444.66;4983450;28;20676;-82
2022/06/06 02:13:36;;;;;;;6.83;6.20;;;;;;;18.10;72.64;100447.34;4988654;28;20599;-83
2022/06/06 02:16:03;;;;;;;6.90;6.30;;;;;;;18.10;72.44;100450.03;4989769;28;20574;-83
2022/06/06 02:18:31;;;;;;;7.23;6.30;;;;;;;18.09;72.55;100458.31;4984899;28;20221;-81
2022/06/06 02:20:57;;;;;;;6.57;5.97;;;;;;;18.07;72.60;100449.50;4986632;28;20573;-82
2022/06/06 02:23:26;;;;;;;6.47;5.97;;;;;;;18.08;72.58;100451.22;4983103;28;20205;-84
2022/06/06 02:25:54;;;;;;;7.33;6.63;;;;;;;18.08;72.91;100451.22;4989314;28;20235;-81
2022/06/06 02:28:20;;;;;;;7.30;6.60;;;;;;;18.09;72.88;100450.22;4996560;28;20232;-83
2022/06/06 02:30:47;;;;;;;7.20;6.50;;;;;;;18.08;72.79;100440.44;4990218;28;20209;-84
2022/06/06 02:33:14;;;;;;;7.03;6.43;;;;;;;18.08;73.06;100445.81;4988654;28;20214;-84
2022/06/06 02:35:42;;;;;;;6.93;6.23;;;;;;;18.09;72.98;100447.53;4992783;28;20234;-84
2022/06/06 02:38:10;;;;;;;6.80;6.20;;;;;;;18.09;73.18;100450.22;4978839;28;20211;-83
2022/06/06 02:40:36;;;;;;;6.13;5.63;;;;;;;18.09;73.08;100453.75;4980745;28;20560;-84
2022/06/06 02:43:03;;;;;;;6.07;5.50;;;;;;;18.08;73.24;100454.75;4986512;28;20212;-84
2022/06/06 02:45:30;;;;;;;6.93;5.37;;;;;;;18.08;73.17;100451.22;4989760;28;20220;-84
2022/06/06 02:47:58;;;;;;;5.80;5.30;;;;;;;18.08;73.28;100456.59;4983176;28;20234;-85
2022/06/06 02:50:28;;;;;;;5.93;5.43;;;;;;;18.06;73.50;100455.91;4988926;28;20213;-84
2022/06/06 02:52:56;;;;;;;6.80;5.63;;;;;;;18.06;73.42;100470.22;4992461;28;20207;-83
2022/06/06 02:55:23;;;;;;;5.90;5.40;;;;;;;18.04;73.77;100467.69;4990783;28;20233;-84
2022/06/06 02:57:52;;;;;;;7.00;6.40;;;;;;;18.04;73.55;100473.06;4992016;28;20340;-84
2022/06/06 03:00:24;;;;;;;6.33;5.70;;;;;;;18.04;73.73;100466.81;4988600;28;20218;-82
2022/06/06 03:02:51;;;;;;;6.40;5.80;;;;;;;18.02;74.08;100472.38;4989313;28;20677;-82
2022/06/06 03:05:18;;;;;;;6.40;5.90;;;;;;;18.02;74.20;100468.81;4992888;28;20309;-84
2022/06/06 03:07:56;;;;;;;6.37;5.87;;;;;;;18.00;74.18;100477.03;4988219;28;20227;-84
2022/06/06 03:10:33;;;;;;;6.73;6.13;;;;;;;17.98;74.30;100475.50;4978230;28;20203;-84
2022/06/06 03:13:11;;;;;;;6.97;6.23;;;;;;;17.96;74.16;100481.03;4987490;28;20218;-83
2022/06/06 03:21:36;;;;;;;7.63;6.93;;;;;;;17.93;74.65;100475.09;4990550;28;20273;-84
2022/06/06 03:24:16;;;;;;;8.40;7.53;;;;;;;17.92;74.71;100474.22;4997710;28;20211;-85
2022/06/06 03:26:56;;;;;;;8.60;7.80;;;;;;;17.91;74.79;100480.66;4990653;28;20236;-84
2022/06/06 03:29:39;;;;;;;8.73;7.93;;;;;;;17.91;74.79;100487.88;4990048;28;20302;-84
2022/06/06 03:32:13;;;;;;;8.37;7.57;;;;;;;17.90;74.75;100489.72;4982256;28;20200;-84
2022/06/06 03:34:46;;;;;;;9.10;8.20;;;;;;;17.89;74.74;100488.03;4987558;28;20203;-83
2022/06/06 03:37:22;;;;;;;7.67;6.97;;;;;;;17.91;74.96;100493.28;4985451;28;20286;-82
2022/06/06 03:39:59;;;;;;;8.10;7.33;;;;;;;17.90;74.88;100492.44;4985907;28;20233;-84
2022/06/06 03:42:35;;;;;;;7.70;7.10;;;;;;;17.87;74.85;100481.94;4987982;28;20200;-83
2022/06/06 03:45:12;;;;;;;7.63;6.97;;;;;;;17.87;74.88;100495.41;4983744;28;20234;-84
2022/06/06 03:47:50;;;;;;;7.47;6.77;;;;;;;17.85;75.21;100499.25;4985428;28;20663;-84
2022/06/06 03:50:28;;;;;;;7.23;6.63;;;;;;;17.83;75.28;100483.22;4979796;28;20200;-84
2022/06/06 03:53:01;;;;;;;7.10;6.40;;;;;;;17.82;75.38;100497.69;4989694;28;20573;-83
2022/06/06 03:55:42;;;;;;;7.87;7.17;;;;;;;17.81;75.59;100493.28;4990815;28;20236;-84
2022/06/06 03:58:12;;;;;;;6.63;6.03;;;;;;;17.80;75.57;100498.81;4984387;28;20273;-85
2022/06/06 04:00:40;;;;;;;7.00;6.40;;;;;;;17.80;75.62;100507.75;4983655;28;20258;-84
2022/06/06 04:03:07;;;;;;;7.13;6.53;;;;;;;17.81;75.41;100492.44;4982230;28;20211;-83
2022/06/06 04:05:36;;;;;;;7.07;6.37;;;;;;;17.78;75.24;100501.66;4991984;28;20225;-85
2022/06/06 04:08:03;;;;;;;7.20;6.50;;;;;;;17.79;75.03;100506.06;4982336;28;20276;-85
2022/06/06 04:10:42;;;;;;;9.90;6.70;;;;;;;17.80;74.93;100504.22;4983571;28;20210;-84
2022/06/06 04:13:26;;;;;;;7.40;6.70;;;;;;;17.78;74.40;100519.66;4986380;28;20211;-83
2022/06/06 04:15:59;;;;;;;7.57;6.43;;;;;;;17.79;74.11;100510.59;4981936;28;20221;-83
2022/06/06 04:18:37;;;;;;;7.10;6.40;;;;;;;17.79;73.88;100522.22;4985698;28;20211;-85
2022/06/06 04:21:17;;;;;;;8.83;7.93;;;;;;;17.78;73.12;100515.13;4978397;28;20201;-84
2022/06/06 04:24:01;;;;;;;8.97;8.07;;;;;;;17.79;72.71;100522.22;4986876;28;20200;-84
2022/06/06 04:26:37;;;;;;;10.67;9.07;;;;;;;17.79;72.41;100527.59;4985876;28;20227;-85
2022/06/06 04:29:16;;;;;;;10.80;8.93;;;;;;;17.82;71.89;100521.09;4990098;28;20253;-85
2022/06/06 04:31:48;;;;;;;14.83;10.63;;;;;;;17.83;71.84;100529.03;4982788;28;20200;-85
2022/06/06 04:34:21;;;;;;;13.13;10.77;;;;;;;17.83;71.74;100520.94;4987713;28;20201;-85
2022/06/06 04:36:55;;;;;;;15.10;11.87;;;;;;;17.83;71.67;100520.94;4989992;28;20728;-85
2022/06/06 04:39:26;;;;;;;12.83;11.50;;;;;;;17.81;71.31;100517.53;4991126;28;20210;-85
2022/06/06 04:41:57;;;;;;;14.20;12.07;;;;;;;17.79;71.33;100519.53;4990786;28;20206;-85
2022/06/06 04:44:32;;;;;;;14.40;12.00;;;;;;;17.77;71.08;100517.97;4993164;28;20198;-84
2022/06/06 04:47:03;;;;;;;13.10;11.70;;;;;;;17.75;71.07;100518.13;4990148;28;20235;-85
2022/06/06 04:49:32;;;;;;;13.33;11.73;;;;;;;17.74;70.90;100526.34;4993112;28;20216;-85
2022/06/06 04:52:00;;;;;;;12.23;10.77;;;;;;;17.74;70.73;100518.25;4993996;28;20214;-84
2022/06/06 04:54:30;;;;;;;14.00;10.67;;;;;;;17.73;70.70;100535.44;4991232;28;20217;-85
2022/06/06 04:57:00;;;;;;;12.63;10.43;;;;;;;17.73;70.68;100541.69;4987139;28;20231;-84
2022/06/06 04:59:30;;;;;;;11.50;10.13;;;;;;;17.72;70.46;100539.97;4994239;28;20230;-84
2022/06/06 05:01:59;;;;;;;12.53;9.73;;;;;;;17.74;70.44;100548.75;4986625;28;20200;-84
2022/06/06 05:04:25;;;;;;;11.07;9.97;;;;;;;17.73;70.33;100547.06;4990756;28;20228;-85
2022/06/06 05:07:09;;;;;;;11.27;10.17;;;;;;;17.73;70.20;100555.16;4994028;28;20225;-84
2022/06/06 05:10:08;;;;;;;11.40;9.73;;;;;;;17.76;70.01;100556.69;4984988;28;20224;-83
2022/06/06 05:12:58;;;;;;;10.43;9.13;;;;;;;17.75;70.00;100550.44;4943197;28;20777;-86
2022/06/06 05:15:39;;;;;;;11.50;10.00;;;;;;;17.77;69.85;100555.69;4981779;28;20219;-85
2022/06/06 05:18:17;;;;;;;12.43;8.93;;;;;;;17.78;69.96;100549.31;4984319;28;20206;-84
2022/06/06 05:20:52;;;;;;;10.83;9.57;;;;;;;17.80;69.93;100561.63;4991466;28;20200;-85
2022/06/06 05:23:37;;;;;;;9.97;8.97;;;;;;;17.82;69.87;100566.88;4985130;28;20716;-84
2022/06/06 05:26:30;;;;;;;12.33;9.63;;;;;;;17.84;69.74;100565.75;4990030;28;20224;-84
2022/06/06 05:29:25;;;;;;;12.50;10.17;;;;;;;17.86;69.77;100558.38;4991676;28;20212;-84
2022/06/06 05:32:16;;;;;;;11.20;9.87;;;;;;;17.85;69.70;100567.44;4987705;28;20216;-85
2022/06/06 05:34:49;;;;;;;10.93;9.70;;;;;;;17.92;70.00;100573.94;4990328;28;20211;-84
2022/06/06 05:37:29;;;;;;;13.03;10.17;;;;;;;17.98;70.05;100570.66;4988942;28;20206;-84
2022/06/06 05:40:17;;;;;;;15.43;10.47;;;;;;;18.11;70.02;100586.50;4979457;28;20207;-84
2022/06/06 05:43:00;;;;;;;11.33;9.77;;;;;;;18.23;69.85;100582.63;4987822;28;20214;-84
2022/06/06 05:45:37;;;;;;;10.57;9.50;;;;;;;18.35;69.64;100577.91;4986281;28;20227;-83
2022/06/06 05:48:19;;;;;;;11.70;9.33;;;;;;;18.50;69.54;100580.94;4988129;28;20216;-83
2022/06/06 05:50:59;;;;;;;10.27;9.27;;;;;;;18.65;69.19;100584.88;4988604;28;20235;-83
2022/06/06 05:53:43;;;;;;;10.43;9.33;;;;;;;18.78;68.88;100579.97;4988299;28;20215;-83
2022/06/06 05:56:27;;;;;;;10.57;9.20;;;;;;;18.87;67.95;100580.91;4990347;28;20246;-83
2022/06/06 05:59:08;;;;;;;12.07;10.40;;;;;;;18.91;67.79;100585.00;4988724;28;20213;-84
2022/06/06 06:01:49;;;;;;;13.23;11.17;;;;;;;18.93;66.90;100583.00;4987579;28;20203;-84
2022/06/06 06:04:44;;;;;;;11.17;9.93;;;;;;;18.94;66.66;100587.41;4992379;28;20197;-83
2022/06/06 06:07:22;;;;;;;13.00;11.40;;;;;;;18.96;66.49;100597.06;4986519;28;20228;-83
2022/06/06 06:10:05;;;;;;;12.50;11.20;;;;;;;18.99;66.46;100598.56;4988658;28;20602;-83
2022/06/06 06:12:53;;;;;;;12.53;11.00;;;;;;;19.10;67.14;100609.16;4985014;28;20188;-83
2022/06/06 06:15:29;;;;;;;13.60;11.17;;;;;;;19.21;66.83;100611.63;4987288;28;20226;-84
2022/06/06 06:17:57;;;;;;;12.40;11.10;;;;;;;19.30;66.12;100620.69;4989317;28;20213;-83
2022/06/06 06:20:28;;;;;;;12.57;10.77;;;;;;;19.39;66.25;100622.44;4987005;28;20242;-82
2022/06/06 06:23:01;;;;;;;11.57;10.47;;;;;;;19.55;66.41;100632.56;4990875;28;20218;-84
2022/06/06 06:25:28;;;;;;;12.13;9.80;;;;;;;19.67;66.04;100639.44;4990024;28;20222;-84
2022/06/06 06:28:03;;;;;;;11.73;10.27;;;;;;;19.75;65.57;100636.81;4987908;28;20227;-84
2022/06/06 06:30:35;;;;;;;12.13;10.13;;;;;;;19.81;65.07;100638.88;4991908;28;20608;-84
2022/06/06 06:33:18;;;;;;;12.77;9.60;;;;;;;19.85;64.78;100640.28;4986875;28;20233;-84
2022/06/06 06:35:57;;;;;;;10.77;9.67;;;;;;;19.89;64.20;100633.53;4982427;28;20243;-84
2022/06/06 06:38:36;;;;;;;12.20;10.03;;;;;;;19.93;64.31;100631.38;4992386;28;20189;-84
2022/06/06 06:41:12;;;;;;;11.30;9.10;;;;;;;20.05;64.38;100633.66;4990773;28;20579;-84
2022/06/06 06:43:52;;;;;;;11.37;8.33;;;;;;;20.19;64.09;100637.66;4986264;28;20651;-83
2022/06/06 06:46:21;;;;;;;9.20;7.70;;;;;;;20.36;63.93;100638.59;4989010;28;20716;-83
2022/06/06 06:48:51;;;;;;;9.47;7.50;;;;;;;20.53;63.33;100639.56;4987890;28;20228;-83
2022/06/06 06:51:25;;;;;;;9.43;8.43;;;;;;;20.66;62.50;100640.78;4992013;28;20218;-84
2022/06/06 06:54:14;;;;;;;8.77;7.87;;;;;;;20.75;61.67;100644.41;4994413;28;20221;-84
2022/06/06 06:57:08;;;;;;;8.60;7.67;;;;;;;20.82;61.10;100639.16;4985573;28;20648;-84
2022/06/06 06:59:42;;;;;;;7.70;6.90;;;;;;;20.86;61.13;100640.53;4990479;28;20214;-83
2022/06/06 07:11:30;;;;;;;7.43;6.73;;;;;;;21.18;59.76;100643.34;4994024;28;20210;-84
2022/06/06 07:14:18;;;;;;;7.90;7.05;;;;;;;21.21;59.37;100653.88;4910655;29;20220;-83
2022/06/06 07:16:48;;;;;;;7.72;6.93;;;;;;;21.23;58.60;100648.28;4985123;28;20231;-83
2022/06/06 07:19:19;;;;;;;7.60;6.90;;;;;;;21.15;57.55;100636.38;4986981;28;20804;-83
2022/06/06 07:21:47;;;;;;;8.38;7.57;;;;;;;21.22;57.88;100631.19;4988308;28;20200;-84
2022/06/06 07:24:18;;;;;;;8.93;6.97;;;;;;;21.28;57.84;100629.69;4992285;28;21448;-83
2022/06/06 07:26:46;;;;;;;7.85;6.55;;;;;;;21.34;57.91;100634.41;4991997;28;20242;-83
2022/06/06 07:29:15;;;;;;;7.30;6.60;;;;;;;21.37;57.59;100632.22;4989068;28;20227;-83
2022/06/06 07:31:53;;;;;;;7.72;6.90;;;;;;;21.43;57.50;100637.00;4993937;28;20662;-83
2022/06/06 07:34:37;;;;;;;7.50;6.70;;;;;;;21.47;57.26;100632.09;4984526;28;20219;-83
2022/06/06 07:37:16;;;;;;;8.18;7.38;;;;;;;21.45;56.81;100624.13;4991121;28;20233;-83
2022/06/06 07:39:56;;;;;;;7.82;7.03;;;;;;;21.46;56.93;100627.69;5004604;23;20198;-67
2022/06/06 07:42:43;;;;;;;8.15;6.75;;;;;;;21.52;57.52;100626.16;4962793;28;20227;-68
2022/06/06 07:45:21;;;;;;;7.53;6.63;;;;;;;21.60;57.45;100634.28;4968468;28;20294;-68
2022/06/06 07:48:04;;;;;;;7.03;6.05;;;;;;;21.70;57.24;100624.13;4970639;28;20211;-68
2022/06/06 07:50:35;;;;;;;7.22;6.53;;;;;;;21.73;56.66;100621.91;4969479;28;20235;-69
2022/06/06 07:53:11;;;;;;;8.38;7.05;;;;;;;21.77;56.71;100620.56;4993872;23;20208;-68
2022/06/06 07:55:48;;;;;;;7.57;6.72;;;;;;;21.87;57.23;100624.97;4965567;28;20219;-68
2022/06/06 07:58:20;;;;;;;7.60;6.50;;;;;;;21.93;57.02;100627.84;4962597;28;20212;-68
2022/06/06 08:00:54;;;;;;;7.82;6.97;;;;;;;22.05;57.30;100631.91;4969459;28;20200;-70
2022/06/06 08:03:30;;;;;;;7.32;5.78;;;;;;;22.21;57.10;100632.94;4963169;28;20228;-69
2022/06/06 08:06:21;;;;;;;6.63;5.88;;;;;;;22.39;56.21;100630.84;4960024;28;20200;-69
2022/06/06 08:09:04;;;;;;;6.45;5.85;;;;;;;22.44;54.86;100633.88;4959975;28;20240;-69
2022/06/06 08:11:44;;;;;;;6.28;5.68;;;;;;;22.51;54.71;100622.16;4963234;28;20252;-69
2022/06/06 08:14:21;;;;;;;5.57;5.05;;;;;;;22.63;54.60;100628.03;4959629;28;20263;-70
2022/06/06 08:16:54;;;;;;;6.65;5.80;;;;;;;22.69;54.64;100624.63;4955661;28;20219;-69
2022/06/06 08:19:36;;;;;;;6.03;5.43;;;;;;;22.77;53.75;100627.31;4961087;28;20208;-70
2022/06/06 08:22:03;;;;;;;6.28;5.60;;;;;;;22.80;53.81;100635.13;4960818;28;20212;-69
2022/06/06 08:24:33;;;;;;;5.30;4.80;;;;;;;22.80;53.33;100628.84;4961391;28;20227;-69
2022/06/06 08:27:06;;;;;;;6.13;5.53;;;;;;;22.74;52.89;100632.25;4961032;28;20216;-70
2022/06/06 08:29:36;;;;;;;6.15;5.15;;;;;;;22.69;52.88;100630.06;4964159;28;20239;-70
2022/06/06 08:32:03;;;;;;;5.82;4.60;;;;;;;22.65;52.52;100628.72;4960590;28;20208;-68
2022/06/06 08:34:29;;;;;;;5.30;4.82;;;;;;;22.61;52.50;100630.09;4965173;28;20247;-70
2022/06/06 08:37:13;;;;;;;5.45;4.95;;;;;;;22.60;52.78;100631.09;4960292;28;20219;-68
2022/06/06 08:39:48;;;;;;;4.72;4.32;;;;;;;22.57;52.32;100644.19;4961243;28;20258;-68
2022/06/06 08:42:34;;;;;;;6.22;4.85;;;;;;;22.51;52.45;100624.88;4962715;28;20321;-70
2022/06/06 08:45:18;;;;;;;5.53;4.93;;;;;;;22.52;52.68;100626.56;4959217;28;20227;-68
2022/06/06 08:47:59;;;;;;;5.32;4.82;;;;;;;22.56;52.95;100631.66;4960826;28;20200;-68
2022/06/06 08:50:45;;;;;;;5.30;4.80;;;;;;;22.61;52.99;100626.53;4961220;28;20228;-68
2022/06/06 08:53:59;;;;;;;5.47;4.97;;;;;;;22.64;52.59;100628.88;4965179;28;20247;-69
2022/06/06 08:56:38;;;;;;;5.13;4.63;;;;;;;22.66;53.09;100621.41;4960786;28;20219;-68
2022/06/06 08:59:37;;;;;;;5.10;4.60;;;;;;;22.72;52.71;100626.16;4968745;28;20240;-70
2022/06/06 09:02:39;;;;;;;5.10;4.43;;;;;;;22.76;52.80;100612.03;4963262;28;20208;-69
2022/06/06 09:05:41;;;;;;;5.00;4.35;;;;;;;22.92;53.66;100611.16;4967311;28;20604;-69
2022/06/06 09:08:43;;;;;;;4.68;4.28;;;;;;;23.17;53.76;100617.28;4967308;28;20227;-68
2022/06/06 09:11:51;;;;;;;4.00;3.60;;;;;;;23.39;52.67;100602.03;4966608;28;20231;-70
2022/06/06 09:14:46;;;;;;;4.80;4.18;;;;;;;23.59;52.02;100605.13;4965180;28;20224;-68
2022/06/06 09:17:43;;;;;;;4.57;3.67;;;;;;;23.70;50.89;100601.97;4960025;28;20238;-68
2022/06/06 09:20:36;;;;;;;3.22;2.80;;;;;;;23.79;48.75;100614.47;4956781;28;20212;-69
2022/06/06 09:23:38;;;;;;;3.50;3.20;;;;;;;23.74;47.42;100619.63;4959066;28;20208;-68
2022/06/06 09:26:24;;;;;;;5.18;3.58;;;;;;;23.63;47.08;100618.19;4964816;28;20207;-68
2022/06/06 09:29:28;;;;;;;5.00;3.50;;;;;;;23.57;47.27;100623.50;4959390;28;20216;-68
2022/06/06 09:32:55;;;;;;;3.42;2.90;;;;;;;23.54;47.44;100617.38;4956288;28;20749;-68
2022/06/06 09:35:37;;;;;;;3.65;2.80;;;;;;;23.67;47.57;100621.34;4919890;29;20260;-69
2022/06/06 09:38:25;;;;;;;3.17;2.70;;;;;;;23.71;46.43;100618.09;4923388;29;20253;-69
2022/06/06 09:41:22;;;;;;;3.20;2.90;;;;;;;23.72;45.97;100616.22;4958070;28;20284;-69
2022/06/06 09:43:56;;;;;;;3.33;2.58;;;;;;;23.68;45.33;100617.63;4960933;28;20230;-69
2022/06/06 09:47:01;;;;;;;2.65;2.45;;;;;;;23.69;45.86;100622.03;4961009;28;20204;-70
2022/06/06 09:50:18;;;;;;;2.53;2.33;;;;;;;23.78;46.19;100618.22;4957215;28;20235;-69
2022/06/06 09:53:13;;;;;;;2.40;2.20;;;;;;;23.90;45.15;100603.13;4942097;28;20208;-69
2022/06/06 09:59:29;;;;;;;2.85;2.22;;;;;;;24.10;44.70;100611.63;4957698;28;20252;-68
2022/06/06 10:02:42;;;;;;;2.70;2.10;;;;;;;24.10;44.58;100611.63;4955497;28;20220;-68
2022/06/06 10:05:50;;;;;;;2.47;2.03;;;;;;;24.04;44.72;100624.06;4968185;28;20239;-69
2022/06/06 10:09:08;;;;;;;2.75;2.53;;;;;;;23.93;44.65;100620.97;4970358;28;20210;-69
2022/06/06 10:12:14;;;;;;;3.15;2.00;;;;;;;23.84;44.47;100621.03;4968525;28;20294;-69
2022/06/06 10:14:55;;;;;;;2.30;2.10;;;;;;;23.73;45.43;100631.50;4968593;28;20554;-69
2022/06/06 10:17:59;;;;;;;2.80;2.58;;;;;;;23.68;46.94;100633.94;4965829;28;20223;-69
2022/06/06 10:20:42;;;;;;;2.70;2.50;;;;;;;23.61;47.84;100632.97;4967597;28;20210;-69
2022/06/06 10:23:29;;;;;;;4.25;3.00;;;;;;;23.44;48.33;100622.19;4967458;28;20228;-69
2022/06/06 10:26:33;;;;;;;3.05;2.67;;;;;;;23.29;48.56;100617.72;4961386;28;20210;-69
2022/06/06 10:29:24;;;;;;;3.03;2.40;;;;;;;23.19;48.88;100620.66;4966459;28;20583;-68
2022/06/06 10:32:05;;;;;;;2.92;2.60;;;;;;;23.07;47.94;100622.94;4971921;28;20219;-69
2022/06/06 10:34:53;;;;;;;2.78;2.53;;;;;;;22.98;47.85;100617.72;4964682;28;20231;-68
2022/06/06 10:37:36;;;;;;;2.75;2.35;;;;;;;22.96;47.97;100612.47;4967312;28;20208;-68
2022/06/06 10:40:17;;;;;;;2.65;2.45;;;;;;;23.06;47.78;100607.69;4959087;28;20295;-69
2022/06/06 10:43:08;;;;;;;2.63;2.42;;;;;;;23.16;46.95;100613.72;4958367;28;20220;-69
2022/06/06 10:45:38;;;;;;;3.25;2.40;;;;;;;23.28;46.92;100614.16;4962457;28;20271;-69
2022/06/06 10:48:30;;;;;;;2.78;2.28;;;;;;;23.41;46.26;100628.00;4967538;28;20215;-69
2022/06/06 10:51:40;;;;;;;2.22;2.03;;;;;;;23.45;44.52;100621.19;4963016;28;20257;-69
2022/06/06 10:54:35;;;;;;;2.38;2.17;;;;;;;23.55;44.73;100618.22;4967006;28;20231;-69
2022/06/06 10:57:36;;;;;;;2.72;2.20;;;;;;;23.62;44.55;100615.66;4968536;28;20677;-70
2022/06/06 11:00:14;;;;;;;4.93;2.20;;;;;;;23.73;44.11;100610.59;4966929;28;20201;-69
2022/06/06 11:03:20;;;;;;;2.72;2.33;;;;;;;23.83;43.96;100623.94;4964027;28;20217;-68
2022/06/06 11:06:26;;;;;;;3.08;2.47;;;;;;;23.86;42.86;100620.84;4968796;28;20212;-69
2022/06/06 11:09:18;;;;;;;2.35;2.15;;;;;;;23.96;42.84;100607.84;4969090;28;20211;-69
2022/06/06 11:12:03;;;;;;;1.83;1.58;;;;;;;24.05;42.70;100598.56;4963006;28;21127;-68
2022/06/06 11:14:35;;;;;;;2.05;1.58;;;;;;;24.21;41.47;100594.81;4965235;28;20234;-69
2022/06/06 11:17:33;;;;;;;1.75;1.65;;;;;;;24.36;41.36;100598.44;4959674;28;20208;-69
2022/06/06 11:20:43;;;;;;;1.67;1.40;;;;;;;24.53;40.40;100608.13;4959561;28;20454;-69
2022/06/06 11:23:18;;;;;;;2.70;1.38;;;;;;;24.69;38.92;100607.06;4921939;29;20237;-69
2022/06/06 11:25:59;;;;;;;3.15;1.60;;;;;;;24.80;38.33;100597.56;4921155;29;20217;-69
2022/06/06 11:28:59;;;;;;;1.73;1.63;;;;;;;24.89;38.61;100597.25;4944703;28;20701;-69
2022/06/06 11:31:50;;;;;;;1.55;1.45;;;;;;;24.96;37.98;100599.22;4959406;28;20240;-68
2022/06/06 11:34:58;;;;;;;2.72;1.70;;;;;;;25.05;38.08;100600.81;4966840;28;20230;-68
2022/06/06 11:37:52;;;;;;;1.73;1.63;;;;;;;25.12;38.19;100591.66;4961274;28;20311;-69
2022/06/06 11:40:56;;;;;;;2.50;1.70;;;;;;;25.23;38.07;100590.34;4960747;28;20210;-69
2022/06/06 11:43:45;;;;;;;1.88;1.60;;;;;;;25.29;37.12;100594.16;4973930;28;20218;-70
2022/06/06 11:46:41;;;;;;;1.90;1.48;;;;;;;25.27;36.76;100578.81;4971417;28;20208;-68
2022/06/06 11:49:47;;;;;;;2.42;1.38;;;;;;;25.27;36.27;100583.44;4962048;28;20223;-69
2022/06/06 11:52:50;;;;;;;1.40;1.30;;;;;;;25.27;36.18;100588.88;4978816;28;20215;-69
2022/06/06 11:55:32;;;;;;;1.58;1.48;;;;;;;25.33;36.42;100579.94;4969986;28;20686;-69
2022/06/06 11:58:32;;;;;;;1.20;1.10;;;;;;;25.45;34.59;100591.16;4958715;28;20601;-70
2022/06/06 12:01:22;;;;;;;2.92;1.05;;;;;;;25.39;34.01;100565.53;4966155;28;20200;-69
2022/06/06 12:04:11;;;;;;;1.40;1.20;;;;;;;25.34;34.31;100578.06;4969382;28;20320;-69
2022/06/06 12:07:13;;;;;;;3.03;1.13;;;;;;;25.33;34.76;100582.66;4958892;28;20209;-68
2022/06/06 12:09:52;;;;;;;1.52;1.10;;;;;;;25.38;34.38;100568.47;4960335;28;20231;-68
2022/06/06 12:12:43;;;;;;;1.30;1.20;;;;;;;25.50;33.94;100575.06;4967350;28;20214;-69
2022/06/06 12:15:29;;;;;;;1.42;1.15;;;;;;;25.61;33.88;100577.28;4974615;28;20728;-68
2022/06/06 12:18:28;;;;;;;1.10;1.00;;;;;;;25.68;33.38;100570.00;4968143;28;20564;-70
2022/06/06 12:21:17;;;;;;;0.95;0.85;;;;;;;25.75;33.19;100567.34;4963790;28;20200;-69
2022/06/06 12:24:07;;;;;;;0.95;0.50;;;;;;;25.83;33.07;100572.63;4960835;28;20484;-69
2022/06/06 12:26:55;;;;;;;0.50;0.50;;;;;;;25.86;31.97;100566.78;4955471;28;20209;-69
2022/06/06 12:29:48;;;;;;;0.50;0.50;;;;;;;25.88;31.57;100570.16;4963431;28;20210;-68
2022/06/06 12:32:52;;;;;;;1.45;0.65;;;;;;;25.94;31.54;100547.56;4964267;28;20709;-69
2022/06/06 12:35:23;;;;;;;0.45;0.45;;;;;;;26.02;31.69;100555.56;4935093;28;20212;-69
2022/06/06 12:38:02;;;;;;;2.28;0.90;;;;;;;26.10;31.83;100557.31;4963829;28;20204;-69
2022/06/06 12:40:41;;;;;;;1.95;1.10;;;;;;;26.23;32.10;100549.19;4962034;28;20228;-69
2022/06/06 12:43:17;;;;;;;1.30;1.00;;;;;;;26.27;31.52;100550.50;4957924;28;20223;-68
2022/06/06 12:45:56;;;;;;;1.92;0.90;;;;;;;26.25;31.78;100544.38;4958488;28;20211;-69